sensor_id;sensor_type;location;lat;lon;timestamp;P1;durP1;ratioP1;P2;durP2;ratioP2
77004;SDS011;67261;53.132;18.006;2023-11-21T00:02:08;16.60;;;8.80;;
77004;SDS011;67261;53.132;18.006;2023-11-21T00:04:34;17.20;;;8.90;;
77004;SDS011;67261;53.132;18.006;2023-11-21T00:07:00;17.00;;;8.10;;
77004;SDS011;67261;53.132;18.006;2023-11-21T00:09:27;17.00;;;8.90;;
77004;SDS011;67261;53.132;18.006;2023-11-21T00:11:53;13.80;;;8.20;;
77004;SDS011;67261;53.132;18.006;2023-11-21T00:14:19;13.90;;;8.30;;
77004;SDS011;67261;53.132;18.006;2023-11-21T00:16:46;13.20;;;8.30;;
77004;SDS011;67261;53.132;18.006;2023-11-21T00:19:12;8.00;;;4.10;;
77004;SDS011;67261;53.132;18.006;2023-11-21T00:21:38;12.40;;;6.90;;
77004;SDS011;67261;53.132;18.006;2023-11-21T00:24:04;15.10;;;8.10;;
77004;SDS011;67261;53.132;18.006;2023-11-21T00:26:32;12.70;;;7.10;;
77004;SDS011;67261;53.132;18.006;2023-11-21T00:29:03;13.50;;;6.60;;
77004;SDS011;67261;53.132;18.006;2023-11-21T00:31:30;13.80;;;8.40;;
77004;SDS011;67261;53.132;18.006;2023-11-21T00:33:57;15.00;;;9.00;;
77004;SDS011;67261;53.132;18.006;2023-11-21T00:36:23;16.60;;;8.50;;
77004;SDS011;67261;53.132;18.006;2023-11-21T00:38:51;15.90;;;8.80;;
77004;SDS011;67261;53.132;18.006;2023-11-21T00:41:18;14.10;;;7.60;;
77004;SDS011;67261;53.132;18.006;2023-11-21T00:43:44;17.10;;;8.60;;
77004;SDS011;67261;53.132;18.006;2023-11-21T00:46:10;16.00;;;8.10;;
77004;SDS011;67261;53.132;18.006;2023-11-21T00:48:36;15.30;;;8.80;;
77004;SDS011;67261;53.132;18.006;2023-11-21T00:51:02;13.70;;;7.20;;
77004;SDS011;67261;53.132;18.006;2023-11-21T00:53:29;14.70;;;8.70;;
77004;SDS011;67261;53.132;18.006;2023-11-21T00:55:56;14.90;;;8.50;;
77004;SDS011;67261;53.132;18.006;2023-11-21T00:58:24;13.80;;;7.70;;
77004;SDS011;67261;53.132;18.006;2023-11-21T01:00:50;13.20;;;6.90;;
77004;SDS011;67261;53.132;18.006;2023-11-21T01:03:17;13.80;;;7.90;;
77004;SDS011;67261;53.132;18.006;2023-11-21T01:05:43;14.40;;;8.40;;
77004;SDS011;67261;53.132;18.006;2023-11-21T01:08:10;13.90;;;8.10;;
77004;SDS011;67261;53.132;18.006;2023-11-21T01:10:37;12.10;;;6.50;;
77004;SDS011;67261;53.132;18.006;2023-11-21T01:13:03;14.50;;;7.90;;
77004;SDS011;67261;53.132;18.006;2023-11-21T01:15:31;15.10;;;8.00;;
77004;SDS011;67261;53.132;18.006;2023-11-21T01:17:57;12.50;;;7.20;;
77004;SDS011;67261;53.132;18.006;2023-11-21T01:20:24;13.90;;;7.60;;
77004;SDS011;67261;53.132;18.006;2023-11-21T01:22:50;15.90;;;7.90;;
77004;SDS011;67261;53.132;18.006;2023-11-21T01:25:16;15.00;;;8.20;;
77004;SDS011;67261;53.132;18.006;2023-11-21T01:27:43;14.60;;;8.00;;
77004;SDS011;67261;53.132;18.006;2023-11-21T01:30:09;14.00;;;7.60;;
77004;SDS011;67261;53.132;18.006;2023-11-21T01:32:39;18.00;;;8.70;;
77004;SDS011;67261;53.132;18.006;2023-11-21T01:35:05;18.10;;;9.60;;
77004;SDS011;67261;53.132;18.006;2023-11-21T01:37:34;14.90;;;8.00;;
77004;SDS011;67261;53.132;18.006;2023-11-21T01:40:01;18.30;;;8.80;;
77004;SDS011;67261;53.132;18.006;2023-11-21T01:42:28;16.30;;;9.20;;
77004;SDS011;67261;53.132;18.006;2023-11-21T01:44:55;17.40;;;9.40;;
77004;SDS011;67261;53.132;18.006;2023-11-21T01:47:21;19.10;;;10.60;;
77004;SDS011;67261;53.132;18.006;2023-11-21T01:49:48;18.00;;;9.40;;
77004;SDS011;67261;53.132;18.006;2023-11-21T01:52:15;17.40;;;9.80;;
77004;SDS011;67261;53.132;18.006;2023-11-21T01:54:41;14.80;;;8.00;;
77004;SDS011;67261;53.132;18.006;2023-11-21T01:57:08;15.10;;;8.80;;
77004;SDS011;67261;53.132;18.006;2023-11-21T01:59:36;15.90;;;8.80;;
77004;SDS011;67261;53.132;18.006;2023-11-21T02:02:05;15.40;;;8.20;;
77004;SDS011;67261;53.132;18.006;2023-11-21T02:06:59;16.00;;;9.10;;
77004;SDS011;67261;53.132;18.006;2023-11-21T02:09:27;13.80;;;6.10;;
77004;SDS011;67261;53.132;18.006;2023-11-21T02:11:54;14.60;;;7.40;;
77004;SDS011;67261;53.132;18.006;2023-11-21T02:14:21;16.80;;;8.50;;
77004;SDS011;67261;53.132;18.006;2023-11-21T02:16:51;15.20;;;9.00;;
77004;SDS011;67261;53.132;18.006;2023-11-21T02:19:18;15.90;;;8.70;;
77004;SDS011;67261;53.132;18.006;2023-11-21T02:21:46;13.50;;;7.40;;
77004;SDS011;67261;53.132;18.006;2023-11-21T02:24:15;15.10;;;9.30;;
77004;SDS011;67261;53.132;18.006;2023-11-21T02:29:09;18.60;;;10.40;;
77004;SDS011;67261;53.132;18.006;2023-11-21T02:31:39;16.10;;;8.50;;
77004;SDS011;67261;53.132;18.006;2023-11-21T02:34:17;16.20;;;8.10;;
77004;SDS011;67261;53.132;18.006;2023-11-21T02:36:44;15.20;;;8.30;;
77004;SDS011;67261;53.132;18.006;2023-11-21T02:39:11;17.40;;;9.00;;
77004;SDS011;67261;53.132;18.006;2023-11-21T02:41:39;17.00;;;9.50;;
77004;SDS011;67261;53.132;18.006;2023-11-21T02:44:06;16.20;;;8.50;;
77004;SDS011;67261;53.132;18.006;2023-11-21T02:46:33;17.40;;;9.10;;
77004;SDS011;67261;53.132;18.006;2023-11-21T02:49:00;17.70;;;10.10;;
77004;SDS011;67261;53.132;18.006;2023-11-21T02:51:30;17.80;;;8.80;;
77004;SDS011;67261;53.132;18.006;2023-11-21T02:54:14;25.90;;;13.60;;
77004;SDS011;67261;53.132;18.006;2023-11-21T02:59:09;17.90;;;9.00;;
77004;SDS011;67261;53.132;18.006;2023-11-21T03:01:36;19.50;;;10.50;;
77004;SDS011;67261;53.132;18.006;2023-11-21T03:04:03;16.00;;;8.50;;
77004;SDS011;67261;53.132;18.006;2023-11-21T03:06:29;17.50;;;8.50;;
77004;SDS011;67261;53.132;18.006;2023-11-21T03:08:56;20.10;;;9.70;;
77004;SDS011;67261;53.132;18.006;2023-11-21T03:11:25;15.30;;;9.00;;
77004;SDS011;67261;53.132;18.006;2023-11-21T03:13:51;16.80;;;9.70;;
77004;SDS011;67261;53.132;18.006;2023-11-21T03:16:23;18.30;;;9.10;;
77004;SDS011;67261;53.132;18.006;2023-11-21T03:18:50;16.20;;;8.90;;
77004;SDS011;67261;53.132;18.006;2023-11-21T03:21:18;18.20;;;9.00;;
77004;SDS011;67261;53.132;18.006;2023-11-21T03:23:45;18.00;;;9.10;;
77004;SDS011;67261;53.132;18.006;2023-11-21T03:26:12;18.00;;;10.30;;
77004;SDS011;67261;53.132;18.006;2023-11-21T03:28:39;19.20;;;10.60;;
77004;SDS011;67261;53.132;18.006;2023-11-21T03:31:06;18.70;;;10.20;;
77004;SDS011;67261;53.132;18.006;2023-11-21T03:33:33;21.20;;;10.70;;
77004;SDS011;67261;53.132;18.006;2023-11-21T03:36:01;19.30;;;11.10;;
77004;SDS011;67261;53.132;18.006;2023-11-21T03:38:27;19.60;;;11.80;;
77004;SDS011;67261;53.132;18.006;2023-11-21T03:40:54;20.50;;;10.50;;
77004;SDS011;67261;53.132;18.006;2023-11-21T03:43:20;16.20;;;9.00;;
77004;SDS011;67261;53.132;18.006;2023-11-21T03:45:47;22.60;;;10.50;;
77004;SDS011;67261;53.132;18.006;2023-11-21T03:48:16;18.00;;;10.10;;
77004;SDS011;67261;53.132;18.006;2023-11-21T03:50:43;21.30;;;11.40;;
77004;SDS011;67261;53.132;18.006;2023-11-21T03:53:09;20.40;;;10.40;;
77004;SDS011;67261;53.132;18.006;2023-11-21T03:55:36;20.50;;;11.40;;
77004;SDS011;67261;53.132;18.006;2023-11-21T03:58:03;19.80;;;10.00;;
77004;SDS011;67261;53.132;18.006;2023-11-21T04:00:30;20.90;;;11.40;;
77004;SDS011;67261;53.132;18.006;2023-11-21T04:02:56;20.50;;;11.70;;
77004;SDS011;67261;53.132;18.006;2023-11-21T04:05:22;18.70;;;9.70;;
77004;SDS011;67261;53.132;18.006;2023-11-21T04:07:49;20.00;;;10.00;;
77004;SDS011;67261;53.132;18.006;2023-11-21T04:10:17;19.00;;;9.50;;
77004;SDS011;67261;53.132;18.006;2023-11-21T04:12:44;19.90;;;11.00;;
77004;SDS011;67261;53.132;18.006;2023-11-21T04:15:11;21.40;;;11.10;;
77004;SDS011;67261;53.132;18.006;2023-11-21T04:17:41;20.40;;;10.60;;
77004;SDS011;67261;53.132;18.006;2023-11-21T04:20:10;30.40;;;13.90;;
77004;SDS011;67261;53.132;18.006;2023-11-21T04:22:40;21.20;;;10.60;;
77004;SDS011;67261;53.132;18.006;2023-11-21T04:25:10;20.10;;;11.30;;
77004;SDS011;67261;53.132;18.006;2023-11-21T04:27:40;22.70;;;11.20;;
77004;SDS011;67261;53.132;18.006;2023-11-21T04:30:10;15.60;;;7.50;;
77004;SDS011;67261;53.132;18.006;2023-11-21T04:32:37;19.00;;;9.90;;
77004;SDS011;67261;53.132;18.006;2023-11-21T04:35:05;20.00;;;9.90;;
77004;SDS011;67261;53.132;18.006;2023-11-21T04:37:34;22.70;;;10.80;;
77004;SDS011;67261;53.132;18.006;2023-11-21T04:40:01;21.50;;;10.10;;
77004;SDS011;67261;53.132;18.006;2023-11-21T04:42:29;19.40;;;9.90;;
77004;SDS011;67261;53.132;18.006;2023-11-21T04:47:23;19.50;;;9.40;;
77004;SDS011;67261;53.132;18.006;2023-11-21T04:49:51;18.60;;;9.10;;
77004;SDS011;67261;53.132;18.006;2023-11-21T04:52:21;20.40;;;10.40;;
77004;SDS011;67261;53.132;18.006;2023-11-21T04:54:47;20.00;;;10.40;;
77004;SDS011;67261;53.132;18.006;2023-11-21T04:57:14;22.30;;;10.90;;
77004;SDS011;67261;53.132;18.006;2023-11-21T04:59:40;19.00;;;9.30;;
77004;SDS011;67261;53.132;18.006;2023-11-21T05:02:07;18.20;;;9.20;;
77004;SDS011;67261;53.132;18.006;2023-11-21T05:04:33;20.90;;;10.40;;
77004;SDS011;67261;53.132;18.006;2023-11-21T05:06:59;19.30;;;8.90;;
77004;SDS011;67261;53.132;18.006;2023-11-21T05:09:26;16.60;;;8.10;;
77004;SDS011;67261;53.132;18.006;2023-11-21T05:11:54;20.70;;;9.50;;
77004;SDS011;67261;53.132;18.006;2023-11-21T05:14:20;21.10;;;9.80;;
77004;SDS011;67261;53.132;18.006;2023-11-21T05:16:47;20.10;;;9.20;;
77004;SDS011;67261;53.132;18.006;2023-11-21T05:19:13;19.30;;;9.60;;
77004;SDS011;67261;53.132;18.006;2023-11-21T05:21:39;17.10;;;7.30;;
77004;SDS011;67261;53.132;18.006;2023-11-21T05:24:06;19.10;;;8.50;;
77004;SDS011;67261;53.132;18.006;2023-11-21T05:26:32;19.60;;;8.90;;
77004;SDS011;67261;53.132;18.006;2023-11-21T05:28:59;20.00;;;9.00;;
77004;SDS011;67261;53.132;18.006;2023-11-21T05:31:25;15.80;;;6.80;;
77004;SDS011;67261;53.132;18.006;2023-11-21T05:33:52;21.30;;;9.60;;
77004;SDS011;67261;53.132;18.006;2023-11-21T05:36:19;17.60;;;8.60;;
77004;SDS011;67261;53.132;18.006;2023-11-21T05:38:45;21.20;;;9.20;;
77004;SDS011;67261;53.132;18.006;2023-11-21T05:41:11;16.30;;;8.50;;
77004;SDS011;67261;53.132;18.006;2023-11-21T05:43:39;19.30;;;9.00;;
77004;SDS011;67261;53.132;18.006;2023-11-21T05:46:06;22.40;;;10.40;;
77004;SDS011;67261;53.132;18.006;2023-11-21T05:48:33;18.50;;;8.80;;
77004;SDS011;67261;53.132;18.006;2023-11-21T05:50:59;19.60;;;8.50;;
77004;SDS011;67261;53.132;18.006;2023-11-21T05:53:28;17.50;;;8.80;;
77004;SDS011;67261;53.132;18.006;2023-11-21T05:55:54;19.40;;;10.00;;
77004;SDS011;67261;53.132;18.006;2023-11-21T05:58:20;17.80;;;8.90;;
77004;SDS011;67261;53.132;18.006;2023-11-21T06:00:47;18.40;;;9.10;;
77004;SDS011;67261;53.132;18.006;2023-11-21T06:03:13;20.10;;;9.60;;
77004;SDS011;67261;53.132;18.006;2023-11-21T06:05:40;19.70;;;9.00;;
77004;SDS011;67261;53.132;18.006;2023-11-21T06:08:06;16.40;;;7.70;;
77004;SDS011;67261;53.132;18.006;2023-11-21T06:10:33;25.00;;;9.50;;
77004;SDS011;67261;53.132;18.006;2023-11-21T06:13:00;20.40;;;8.60;;
77004;SDS011;67261;53.132;18.006;2023-11-21T06:15:26;20.50;;;11.10;;
77004;SDS011;67261;53.132;18.006;2023-11-21T06:17:52;20.50;;;10.50;;
77004;SDS011;67261;53.132;18.006;2023-11-21T06:20:19;21.20;;;10.50;;
77004;SDS011;67261;53.132;18.006;2023-11-21T06:22:46;20.40;;;11.40;;
77004;SDS011;67261;53.132;18.006;2023-11-21T06:25:14;18.80;;;9.10;;
77004;SDS011;67261;53.132;18.006;2023-11-21T06:27:43;19.00;;;9.50;;
77004;SDS011;67261;53.132;18.006;2023-11-21T06:30:17;18.80;;;8.60;;
77004;SDS011;67261;53.132;18.006;2023-11-21T06:32:46;20.90;;;9.20;;
77004;SDS011;67261;53.132;18.006;2023-11-21T06:35:16;15.60;;;8.10;;
77004;SDS011;67261;53.132;18.006;2023-11-21T06:37:45;16.30;;;8.40;;
77004;SDS011;67261;53.132;18.006;2023-11-21T06:40:14;19.80;;;11.00;;
77004;SDS011;67261;53.132;18.006;2023-11-21T06:42:44;22.60;;;10.60;;
77004;SDS011;67261;53.132;18.006;2023-11-21T06:45:13;20.70;;;10.50;;
77004;SDS011;67261;53.132;18.006;2023-11-21T06:47:40;20.60;;;10.70;;
77004;SDS011;67261;53.132;18.006;2023-11-21T06:50:07;18.30;;;8.70;;
77004;SDS011;67261;53.132;18.006;2023-11-21T06:52:36;16.60;;;8.40;;
77004;SDS011;67261;53.132;18.006;2023-11-21T06:55:05;17.20;;;8.10;;
77004;SDS011;67261;53.132;18.006;2023-11-21T06:57:34;20.80;;;8.80;;
77004;SDS011;67261;53.132;18.006;2023-11-21T07:00:01;17.80;;;10.30;;
77004;SDS011;67261;53.132;18.006;2023-11-21T07:02:29;18.00;;;8.70;;
77004;SDS011;67261;53.132;18.006;2023-11-21T07:05:03;17.90;;;9.00;;
77004;SDS011;67261;53.132;18.006;2023-11-21T07:07:34;18.30;;;8.60;;
77004;SDS011;67261;53.132;18.006;2023-11-21T07:12:30;14.00;;;7.10;;
77004;SDS011;67261;53.132;18.006;2023-11-21T07:14:58;13.80;;;7.00;;
77004;SDS011;67261;53.132;18.006;2023-11-21T07:19:54;15.60;;;7.00;;
77004;SDS011;67261;53.132;18.006;2023-11-21T07:22:23;14.80;;;7.10;;
77004;SDS011;67261;53.132;18.006;2023-11-21T07:24:51;16.60;;;8.40;;
77004;SDS011;67261;53.132;18.006;2023-11-21T07:27:18;14.10;;;6.90;;
77004;SDS011;67261;53.132;18.006;2023-11-21T07:29:49;15.10;;;7.20;;
77004;SDS011;67261;53.132;18.006;2023-11-21T07:32:16;14.90;;;7.40;;
77004;SDS011;67261;53.132;18.006;2023-11-21T07:34:43;14.40;;;6.90;;
77004;SDS011;67261;53.132;18.006;2023-11-21T07:37:13;17.80;;;7.70;;
77004;SDS011;67261;53.132;18.006;2023-11-21T07:39:40;26.90;;;10.60;;
77004;SDS011;67261;53.132;18.006;2023-11-21T07:42:08;16.00;;;7.60;;
77004;SDS011;67261;53.132;18.006;2023-11-21T07:44:38;16.00;;;7.00;;
77004;SDS011;67261;53.132;18.006;2023-11-21T07:47:06;17.50;;;8.80;;
77004;SDS011;67261;53.132;18.006;2023-11-21T07:49:33;24.40;;;9.80;;
77004;SDS011;67261;53.132;18.006;2023-11-21T07:52:02;21.70;;;8.40;;
77004;SDS011;67261;53.132;18.006;2023-11-21T07:54:31;16.00;;;7.50;;
77004;SDS011;67261;53.132;18.006;2023-11-21T07:56:58;17.70;;;7.60;;
77004;SDS011;67261;53.132;18.006;2023-11-21T07:59:25;16.50;;;6.90;;
77004;SDS011;67261;53.132;18.006;2023-11-21T08:01:52;14.70;;;6.40;;
77004;SDS011;67261;53.132;18.006;2023-11-21T08:04:21;18.10;;;9.10;;
77004;SDS011;67261;53.132;18.006;2023-11-21T08:06:48;12.90;;;6.30;;
77004;SDS011;67261;53.132;18.006;2023-11-21T08:09:15;12.20;;;6.60;;
77004;SDS011;67261;53.132;18.006;2023-11-21T08:11:43;13.60;;;6.20;;
77004;SDS011;67261;53.132;18.006;2023-11-21T08:14:10;13.50;;;6.30;;
77004;SDS011;67261;53.132;18.006;2023-11-21T08:16:38;14.00;;;7.50;;
77004;SDS011;67261;53.132;18.006;2023-11-21T08:19:05;13.50;;;6.80;;
77004;SDS011;67261;53.132;18.006;2023-11-21T08:21:34;13.80;;;8.00;;
77004;SDS011;67261;53.132;18.006;2023-11-21T08:24:16;12.80;;;7.20;;
77004;SDS011;67261;53.132;18.006;2023-11-21T08:26:55;15.70;;;7.70;;
77004;SDS011;67261;53.132;18.006;2023-11-21T08:32:20;26.30;;;9.30;;
77004;SDS011;67261;53.132;18.006;2023-11-21T08:34:52;50.50;;;16.60;;
77004;SDS011;67261;53.132;18.006;2023-11-21T08:38:03;30.50;;;13.70;;
77004;SDS011;67261;53.132;18.006;2023-11-21T08:40:48;27.00;;;11.40;;
77004;SDS011;67261;53.132;18.006;2023-11-21T08:43:24;23.30;;;11.10;;
77004;SDS011;67261;53.132;18.006;2023-11-21T08:45:52;35.40;;;17.80;;
77004;SDS011;67261;53.132;18.006;2023-11-21T08:48:21;18.10;;;9.40;;
77004;SDS011;67261;53.132;18.006;2023-11-21T08:50:57;13.20;;;6.50;;
77004;SDS011;67261;53.132;18.006;2023-11-21T08:53:28;10.30;;;4.80;;
77004;SDS011;67261;53.132;18.006;2023-11-21T08:55:57;11.80;;;6.30;;
77004;SDS011;67261;53.132;18.006;2023-11-21T08:58:28;17.80;;;8.90;;
77004;SDS011;67261;53.132;18.006;2023-11-21T09:00:55;23.60;;;11.00;;
77004;SDS011;67261;53.132;18.006;2023-11-21T09:03:30;28.00;;;13.00;;
77004;SDS011;67261;53.132;18.006;2023-11-21T09:06:18;16.00;;;8.70;;
77004;SDS011;67261;53.132;18.006;2023-11-21T09:08:45;12.00;;;6.50;;
77004;SDS011;67261;53.132;18.006;2023-11-21T09:11:14;12.60;;;6.10;;
77004;SDS011;67261;53.132;18.006;2023-11-21T09:13:42;10.80;;;5.90;;
77004;SDS011;67261;53.132;18.006;2023-11-21T09:16:22;13.50;;;7.30;;
77004;SDS011;67261;53.132;18.006;2023-11-21T09:19:09;14.70;;;7.10;;
77004;SDS011;67261;53.132;18.006;2023-11-21T09:21:40;11.80;;;5.80;;
77004;SDS011;67261;53.132;18.006;2023-11-21T09:24:07;13.50;;;6.70;;
77004;SDS011;67261;53.132;18.006;2023-11-21T09:26:35;12.90;;;6.10;;
77004;SDS011;67261;53.132;18.006;2023-11-21T09:29:01;12.50;;;5.70;;
77004;SDS011;67261;53.132;18.006;2023-11-21T09:31:34;14.40;;;7.50;;
77004;SDS011;67261;53.132;18.006;2023-11-21T09:34:05;13.40;;;6.00;;
77004;SDS011;67261;53.132;18.006;2023-11-21T09:36:40;12.20;;;6.10;;
77004;SDS011;67261;53.132;18.006;2023-11-21T09:40:07;11.50;;;5.30;;
77004;SDS011;67261;53.132;18.006;2023-11-21T09:43:15;12.70;;;6.50;;
77004;SDS011;67261;53.132;18.006;2023-11-21T09:46:04;12.40;;;6.30;;
77004;SDS011;67261;53.132;18.006;2023-11-21T09:49:18;15.10;;;7.10;;
77004;SDS011;67261;53.132;18.006;2023-11-21T09:52:02;12.20;;;6.00;;
77004;SDS011;67261;53.132;18.006;2023-11-21T09:54:41;13.50;;;6.40;;
77004;SDS011;67261;53.132;18.006;2023-11-21T09:57:10;12.70;;;7.30;;
77004;SDS011;67261;53.132;18.006;2023-11-21T09:59:45;13.40;;;7.40;;
77004;SDS011;67261;53.132;18.006;2023-11-21T10:02:29;12.50;;;5.80;;
77004;SDS011;67261;53.132;18.006;2023-11-21T10:05:04;11.90;;;6.30;;
77004;SDS011;67261;53.132;18.006;2023-11-21T10:07:55;12.40;;;6.70;;
77004;SDS011;67261;53.132;18.006;2023-11-21T10:10:49;11.70;;;5.70;;
77004;SDS011;67261;53.132;18.006;2023-11-21T10:13:21;14.80;;;7.10;;
77004;SDS011;67261;53.132;18.006;2023-11-21T10:15:53;16.20;;;7.80;;
77004;SDS011;67261;53.132;18.006;2023-11-21T10:18:23;13.00;;;6.40;;
77004;SDS011;67261;53.132;18.006;2023-11-21T10:20:51;16.00;;;7.70;;
77004;SDS011;67261;53.132;18.006;2023-11-21T10:23:20;14.40;;;7.50;;
77004;SDS011;67261;53.132;18.006;2023-11-21T10:25:58;14.80;;;7.20;;
77004;SDS011;67261;53.132;18.006;2023-11-21T10:28:58;10.50;;;6.00;;
77004;SDS011;67261;53.132;18.006;2023-11-21T10:31:43;13.60;;;7.30;;
77004;SDS011;67261;53.132;18.006;2023-11-21T10:34:17;12.30;;;6.00;;
77004;SDS011;67261;53.132;18.006;2023-11-21T10:36:45;13.80;;;6.90;;
77004;SDS011;67261;53.132;18.006;2023-11-21T10:39:17;11.60;;;6.10;;
77004;SDS011;67261;53.132;18.006;2023-11-21T10:41:48;14.60;;;7.20;;
77004;SDS011;67261;53.132;18.006;2023-11-21T10:44:17;12.60;;;6.60;;
77004;SDS011;67261;53.132;18.006;2023-11-21T10:46:51;18.90;;;8.60;;
77004;SDS011;67261;53.132;18.006;2023-11-21T10:49:22;15.00;;;7.10;;
77004;SDS011;67261;53.132;18.006;2023-11-21T10:51:52;14.20;;;8.40;;
77004;SDS011;67261;53.132;18.006;2023-11-21T10:54:23;14.20;;;7.40;;
77004;SDS011;67261;53.132;18.006;2023-11-21T10:56:58;12.70;;;6.60;;
77004;SDS011;67261;53.132;18.006;2023-11-21T10:59:30;12.00;;;6.20;;
77004;SDS011;67261;53.132;18.006;2023-11-21T11:01:58;11.10;;;5.80;;
77004;SDS011;67261;53.132;18.006;2023-11-21T11:04:29;13.00;;;5.80;;
77004;SDS011;67261;53.132;18.006;2023-11-21T11:07:01;14.10;;;7.50;;
77004;SDS011;67261;53.132;18.006;2023-11-21T11:09:32;14.90;;;7.10;;
77004;SDS011;67261;53.132;18.006;2023-11-21T11:12:01;11.10;;;5.60;;
77004;SDS011;67261;53.132;18.006;2023-11-21T11:14:30;11.80;;;6.20;;
77004;SDS011;67261;53.132;18.006;2023-11-21T11:17:04;11.60;;;6.20;;
77004;SDS011;67261;53.132;18.006;2023-11-21T11:19:34;11.30;;;5.60;;
77004;SDS011;67261;53.132;18.006;2023-11-21T11:33:50;12.90;;;6.90;;
77004;SDS011;67261;53.132;18.006;2023-11-21T11:36:34;11.10;;;5.70;;
77004;SDS011;67261;53.132;18.006;2023-11-21T11:39:27;9.20;;;5.00;;
77004;SDS011;67261;53.132;18.006;2023-11-21T11:42:07;13.50;;;6.20;;
77004;SDS011;67261;53.132;18.006;2023-11-21T11:44:53;10.50;;;4.90;;
77004;SDS011;67261;53.132;18.006;2023-11-21T11:47:29;13.80;;;6.90;;
77004;SDS011;67261;53.132;18.006;2023-11-21T11:50:08;13.00;;;7.10;;
77004;SDS011;67261;53.132;18.006;2023-11-21T11:52:57;14.30;;;7.10;;
77004;SDS011;67261;53.132;18.006;2023-11-21T11:55:53;10.70;;;5.60;;
77004;SDS011;67261;53.132;18.006;2023-11-21T11:58:44;10.50;;;5.70;;
77004;SDS011;67261;53.132;18.006;2023-11-21T12:01:16;12.10;;;6.40;;
77004;SDS011;67261;53.132;18.006;2023-11-21T12:06:52;10.90;;;5.20;;
77004;SDS011;67261;53.132;18.006;2023-11-21T12:11:58;11.70;;;6.50;;
77004;SDS011;67261;53.132;18.006;2023-11-21T12:14:26;9.10;;;3.90;;
77004;SDS011;67261;53.132;18.006;2023-11-21T12:16:56;12.60;;;5.70;;
77004;SDS011;67261;53.132;18.006;2023-11-21T12:19:23;11.50;;;5.40;;
77004;SDS011;67261;53.132;18.006;2023-11-21T12:21:51;10.90;;;5.80;;
77004;SDS011;67261;53.132;18.006;2023-11-21T12:24:20;9.90;;;5.00;;
77004;SDS011;67261;53.132;18.006;2023-11-21T12:26:58;13.60;;;6.90;;
77004;SDS011;67261;53.132;18.006;2023-11-21T12:29:29;7.90;;;4.80;;
77004;SDS011;67261;53.132;18.006;2023-11-21T12:32:02;14.50;;;7.40;;
77004;SDS011;67261;53.132;18.006;2023-11-21T12:34:32;13.50;;;7.20;;
77004;SDS011;67261;53.132;18.006;2023-11-21T12:36:59;14.10;;;7.60;;
77004;SDS011;67261;53.132;18.006;2023-11-21T12:39:29;9.60;;;4.70;;
77004;SDS011;67261;53.132;18.006;2023-11-21T12:41:57;14.40;;;7.30;;
77004;SDS011;67261;53.132;18.006;2023-11-21T12:44:24;11.90;;;6.10;;
77004;SDS011;67261;53.132;18.006;2023-11-21T12:47:10;14.90;;;7.80;;
77004;SDS011;67261;53.132;18.006;2023-11-21T12:49:41;13.70;;;7.40;;
77004;SDS011;67261;53.132;18.006;2023-11-21T12:52:13;14.80;;;7.50;;
77004;SDS011;67261;53.132;18.006;2023-11-21T12:54:41;10.30;;;5.90;;
77004;SDS011;67261;53.132;18.006;2023-11-21T12:57:17;14.70;;;6.50;;
77004;SDS011;67261;53.132;18.006;2023-11-21T12:59:45;19.00;;;8.40;;
77004;SDS011;67261;53.132;18.006;2023-11-21T13:02:13;16.10;;;7.00;;
77004;SDS011;67261;53.132;18.006;2023-11-21T13:04:43;13.10;;;7.10;;
77004;SDS011;67261;53.132;18.006;2023-11-21T13:07:19;10.80;;;6.10;;
77004;SDS011;67261;53.132;18.006;2023-11-21T13:09:51;12.00;;;5.70;;
77004;SDS011;67261;53.132;18.006;2023-11-21T13:12:34;13.70;;;6.20;;
77004;SDS011;67261;53.132;18.006;2023-11-21T13:15:05;12.40;;;6.20;;
77004;SDS011;67261;53.132;18.006;2023-11-21T13:17:36;10.70;;;5.50;;
77004;SDS011;67261;53.132;18.006;2023-11-21T13:20:04;10.70;;;6.00;;
77004;SDS011;67261;53.132;18.006;2023-11-21T13:22:32;10.90;;;6.10;;
77004;SDS011;67261;53.132;18.006;2023-11-21T13:25:02;12.50;;;6.80;;
77004;SDS011;67261;53.132;18.006;2023-11-21T13:27:33;12.00;;;6.40;;
77004;SDS011;67261;53.132;18.006;2023-11-21T13:30:05;11.10;;;5.50;;
77004;SDS011;67261;53.132;18.006;2023-11-21T13:32:34;13.60;;;7.10;;
77004;SDS011;67261;53.132;18.006;2023-11-21T13:35:01;13.40;;;6.80;;
77004;SDS011;67261;53.132;18.006;2023-11-21T13:37:31;15.50;;;8.90;;
77004;SDS011;67261;53.132;18.006;2023-11-21T13:40:01;12.20;;;6.20;;
77004;SDS011;67261;53.132;18.006;2023-11-21T13:42:43;10.80;;;6.10;;
77004;SDS011;67261;53.132;18.006;2023-11-21T13:45:20;13.90;;;7.40;;
77004;SDS011;67261;53.132;18.006;2023-11-21T13:47:53;17.10;;;8.70;;
77004;SDS011;67261;53.132;18.006;2023-11-21T13:50:29;12.60;;;6.40;;
77004;SDS011;67261;53.132;18.006;2023-11-21T13:53:00;12.70;;;5.30;;
77004;SDS011;67261;53.132;18.006;2023-11-21T13:55:48;10.10;;;5.00;;
77004;SDS011;67261;53.132;18.006;2023-11-21T13:58:26;9.80;;;4.30;;
77004;SDS011;67261;53.132;18.006;2023-11-21T14:04:48;13.40;;;6.40;;
77004;SDS011;67261;53.132;18.006;2023-11-21T14:08:01;15.60;;;6.70;;
77004;SDS011;67261;53.132;18.006;2023-11-21T14:10:33;14.50;;;7.70;;
77004;SDS011;67261;53.132;18.006;2023-11-21T14:13:09;16.70;;;7.30;;
77004;SDS011;67261;53.132;18.006;2023-11-21T14:15:41;14.40;;;6.40;;
77004;SDS011;67261;53.132;18.006;2023-11-21T14:18:11;13.60;;;7.30;;
77004;SDS011;67261;53.132;18.006;2023-11-21T14:20:41;13.00;;;6.30;;
77004;SDS011;67261;53.132;18.006;2023-11-21T14:23:11;12.40;;;5.80;;
77004;SDS011;67261;53.132;18.006;2023-11-21T14:25:46;11.30;;;5.80;;
77004;SDS011;67261;53.132;18.006;2023-11-21T14:28:15;13.50;;;6.40;;
77004;SDS011;67261;53.132;18.006;2023-11-21T14:30:46;12.90;;;6.50;;
77004;SDS011;67261;53.132;18.006;2023-11-21T14:33:15;12.00;;;5.40;;
77004;SDS011;67261;53.132;18.006;2023-11-21T14:35:47;13.00;;;5.70;;
77004;SDS011;67261;53.132;18.006;2023-11-21T14:38:14;12.10;;;6.60;;
77004;SDS011;67261;53.132;18.006;2023-11-21T14:40:42;12.50;;;6.20;;
77004;SDS011;67261;53.132;18.006;2023-11-21T14:43:17;12.20;;;6.00;;
77004;SDS011;67261;53.132;18.006;2023-11-21T14:45:52;10.20;;;6.00;;
77004;SDS011;67261;53.132;18.006;2023-11-21T14:48:22;16.00;;;7.40;;
77004;SDS011;67261;53.132;18.006;2023-11-21T14:51:22;9.70;;;4.90;;
77004;SDS011;67261;53.132;18.006;2023-11-21T14:54:00;11.10;;;5.20;;
77004;SDS011;67261;53.132;18.006;2023-11-21T14:56:36;15.50;;;6.40;;
77004;SDS011;67261;53.132;18.006;2023-11-21T15:02:34;11.30;;;6.70;;
77004;SDS011;67261;53.132;18.006;2023-11-21T15:05:31;12.90;;;6.50;;
77004;SDS011;67261;53.132;18.006;2023-11-21T15:08:11;9.50;;;4.60;;
77004;SDS011;67261;53.132;18.006;2023-11-21T15:10:55;15.30;;;7.40;;
77004;SDS011;67261;53.132;18.006;2023-11-21T15:13:50;12.80;;;5.40;;
77004;SDS011;67261;53.132;18.006;2023-11-21T15:17:35;11.20;;;5.60;;
77004;SDS011;67261;53.132;18.006;2023-11-21T15:20:30;15.20;;;7.10;;
77004;SDS011;67261;53.132;18.006;2023-11-21T15:23:06;11.70;;;5.70;;
77004;SDS011;67261;53.132;18.006;2023-11-21T15:25:37;11.80;;;6.60;;
77004;SDS011;67261;53.132;18.006;2023-11-21T15:32:10;13.20;;;6.80;;